Time;durP1;ratioP1;P1;durP2;ratioP2;P2;SDS_P1;SDS_P2;PMS_P1;PMS_P2;Temp;Humidity;BMP_temperature;BMP_pressure;BME280_temperature;BME280_humidity;BME280_pressure;Samples;Min_cycle;Max_cycle;Signal;HPM_P1;HPM_P2
2022/01/26 00:05:44;;;;;;;1.67;1.40;;;3.70;98.20;;;;;;4950374;28;20470;-73
2022/01/26 00:06:31;;;;;;;1.63;1.37;;;3.70;98.20;;;;;;4960863;28;20476;-73
2022/01/26 00:08:58;;;;;;;1.60;1.40;;;3.70;98.20;;;;;;4961550;28;20848;-73
2022/01/26 00:11:27;;;;;;;1.70;1.40;;;3.60;98.20;;;;;;4944873;28;20572;-73
2022/01/26 00:13:55;;;;;;;1.60;1.40;;;3.60;98.20;;;;;;4962353;28;20471;-73
2022/01/26 00:16:27;;;;;;;1.70;1.50;;;3.60;98.20;;;;;;4946001;28;20501;-73
2022/01/26 00:18:58;;;;;;;1.70;1.40;;;3.60;98.20;;;;;;4969198;28;20489;-73
2022/01/26 00:21:30;;;;;;;1.60;1.40;;;3.60;98.20;;;;;;4958820;28;20582;-73
2022/01/26 00:24:06;;;;;;;1.67;1.40;;;3.60;98.20;;;;;;4968529;28;20569;-73
2022/01/26 00:26:58;;;;;;;1.67;1.40;;;3.60;98.20;;;;;;4954608;28;20516;-73
2022/01/26 00:29:23;;;;;;;1.70;1.40;;;3.60;98.20;;;;;;4957084;28;20486;-74
2022/01/26 00:40:23;;;;;;;1.63;1.40;;;3.60;98.20;;;;;;4949223;28;20505;-73
2022/01/26 00:42:54;;;;;;;1.67;1.40;;;3.60;98.20;;;;;;4956391;28;20485;-74
2022/01/26 00:45:25;;;;;;;1.70;1.50;;;3.60;98.20;;;;;;4952537;28;20980;-73
2022/01/26 00:47:51;;;;;;;3.30;2.73;;;3.60;98.20;;;;;;4954074;28;20566;-73
2022/01/26 00:50:19;;;;;;;1.67;1.40;;;3.60;98.20;;;;;;4954713;28;20470;-73
2022/01/26 00:52:52;;;;;;;1.70;1.43;;;3.60;98.20;;;;;;4955733;28;20844;-73
2022/01/26 00:55:20;;;;;;;1.70;1.50;;;3.60;98.20;;;;;;4952258;28;20902;-73
2022/01/26 00:57:47;;;;;;;1.70;1.43;;;3.60;98.20;;;;;;4956692;28;20481;-73
2022/01/26 01:00:18;;;;;;;1.63;1.40;;;3.60;98.20;;;;;;4950421;28;20785;-73
2022/01/26 01:02:45;;;;;;;1.70;1.40;;;3.60;98.20;;;;;;4956146;28;21044;-73
2022/01/26 01:05:17;;;;;;;1.60;1.40;;;3.60;98.20;;;;;;4957235;28;20681;-73
2022/01/26 01:07:46;;;;;;;1.70;1.50;;;3.60;98.20;;;;;;4959713;28;20485;-74
2022/01/26 01:10:14;;;;;;;1.60;1.40;;;3.60;98.20;;;;;;4950845;28;20837;-73
2022/01/26 01:12:43;;;;;;;1.60;1.30;;;3.60;98.20;;;;;;4953231;28;20481;-73
2022/01/26 01:15:11;;;;;;;1.63;1.37;;;3.60;98.20;;;;;;4955174;28;20462;-73
2022/01/26 01:17:43;;;;;;;1.70;1.53;;;3.70;98.20;;;;;;4950221;28;20497;-73
2022/01/26 01:20:23;;;;;;;1.70;1.40;;;3.70;98.20;;;;;;4962227;28;20501;-73
2022/01/26 01:23:08;;;;;;;1.63;1.30;;;3.60;98.20;;;;;;4955272;28;20577;-73
2022/01/26 01:28:28;;;;;;;1.60;1.40;;;3.70;98.20;;;;;;4942042;28;20484;-73
2022/01/26 01:30:59;;;;;;;1.70;1.40;;;3.70;98.20;;;;;;4947863;28;20892;-73
2022/01/26 01:33:33;;;;;;;1.70;1.50;;;3.70;98.20;;;;;;4972561;28;20490;-73
2022/01/26 01:36:05;;;;;;;1.67;1.40;;;3.70;98.20;;;;;;4952150;28;20462;-73
2022/01/26 01:38:34;;;;;;;1.70;1.40;;;3.70;98.20;;;;;;4963012;28;20483;-73
2022/01/26 01:41:00;;;;;;;1.60;1.40;;;3.70;98.20;;;;;;4941372;28;20479;-73
2022/01/26 01:43:27;;;;;;;1.70;1.40;;;3.70;98.20;;;;;;4963625;28;20498;-73
2022/01/26 01:45:55;;;;;;;1.70;1.50;;;3.70;98.20;;;;;;4940549;28;20870;-73
2022/01/26 01:48:27;;;;;;;1.63;1.40;;;3.70;98.20;;;;;;4963965;28;20514;-73
2022/01/26 01:50:58;;;;;;;1.60;1.40;;;3.60;98.20;;;;;;4943243;28;20824;-73
2022/01/26 01:53:32;;;;;;;1.70;1.50;;;3.60;98.20;;;;;;4963681;28;20486;-73
2022/01/26 01:56:00;;;;;;;1.70;1.50;;;3.60;98.20;;;;;;4941354;28;20466;-73
2022/01/26 01:58:28;;;;;;;1.67;1.30;;;3.60;98.20;;;;;;4963822;28;20877;-73
2022/01/26 02:00:56;;;;;;;1.70;1.40;;;3.60;98.20;;;;;;4939702;28;20467;-73
2022/01/26 02:03:23;;;;;;;1.70;1.50;;;3.60;98.20;;;;;;4981638;28;20466;-73
2022/01/26 02:05:49;;;;;;;1.70;1.43;;;3.60;98.20;;;;;;4958919;28;20477;-73
2022/01/26 02:08:18;;;;;;;1.67;1.40;;;3.60;98.20;;;;;;4965043;28;20485;-73
2022/01/26 02:10:45;;;;;;;1.70;1.40;;;3.60;98.20;;;;;;4948587;28;20467;-73
2022/01/26 02:13:18;;;;;;;1.60;1.40;;;3.60;98.20;;;;;;4950345;28;20525;-73
2022/01/26 02:15:52;;;;;;;1.70;1.40;;;3.60;98.20;;;;;;4950944;28;20538;-73
2022/01/26 02:18:34;;;;;;;1.70;1.40;;;3.60;98.20;;;;;;4962656;28;20495;-74
2022/01/26 02:21:30;;;;;;;1.70;1.50;;;3.60;98.20;;;;;;4939362;28;21189;-74
2022/01/26 02:49:32;;;;;;;1.70;1.50;;;3.60;98.20;;;;;;4933711;28;21074;-73
2022/01/26 02:52:14;;;;;;;1.70;1.60;;;3.60;98.20;;;;;;4951479;28;20478;-73
2022/01/26 02:54:55;;;;;;;1.60;1.40;;;3.60;98.20;;;;;;4959268;28;20555;-71
2022/01/26 02:57:43;;;;;;;1.60;1.40;;;3.50;98.20;;;;;;4954045;28;20625;-71
2022/01/26 03:00:17;;;;;;;1.70;1.50;;;3.50;98.20;;;;;;4952128;28;20634;-71
2022/01/26 03:02:50;;;;;;;1.67;1.50;;;3.50;98.20;;;;;;4956962;28;20485;-70
2022/01/26 03:05:20;;;;;;;1.63;1.40;;;3.50;98.20;;;;;;4961431;28;20471;-71
2022/01/26 03:07:52;;;;;;;2.97;2.77;;;3.50;98.20;;;;;;4971799;28;20517;-71
2022/01/26 03:10:24;;;;;;;1.70;1.60;;;3.50;98.20;;;;;;4969796;28;20470;-71
2022/01/26 03:12:57;;;;;;;1.67;1.30;;;3.50;98.20;;;;;;4959780;28;20573;-70
2022/01/26 03:15:28;;;;;;;1.70;1.60;;;3.50;98.20;;;;;;4953343;28;20465;-71
2022/01/26 03:18:25;;;;;;;1.70;1.60;;;3.50;98.20;;;;;;4957052;28;20481;-71
2022/01/26 03:20:54;;;;;;;1.70;1.60;;;3.50;98.20;;;;;;4941443;28;20554;-71
2022/01/26 03:29:10;;;;;;;1.67;1.40;;;3.50;98.20;;;;;;4965441;28;20548;-71
2022/01/26 03:32:37;;;;;;;1.70;1.50;;;3.50;98.20;;;;;;4953359;28;20478;-71
2022/01/26 03:34:54;;;;;;;1.60;1.40;;;3.50;98.20;;;;;;4955729;28;20490;-70
2022/01/26 03:37:26;;;;;;;1.70;1.53;;;3.50;98.20;;;;;;4954284;28;20490;-71
2022/01/26 03:39:54;;;;;;;1.70;1.60;;;3.50;98.20;;;;;;4953564;28;20537;-71
2022/01/26 03:42:22;;;;;;;1.70;1.60;;;3.50;98.20;;;;;;4952862;28;20557;-71
2022/01/26 03:44:49;;;;;;;1.63;1.40;;;3.50;98.20;;;;;;4957363;28;20892;-71
2022/01/26 03:47:16;;;;;;;1.70;1.50;;;3.50;98.20;;;;;;4952619;28;20481;-71
2022/01/26 03:49:43;;;;;;;1.67;1.47;;;3.50;98.20;;;;;;4958564;28;20494;-71
2022/01/26 03:52:11;;;;;;;1.70;1.50;;;3.50;98.20;;;;;;4959178;28;20884;-71
2022/01/26 03:54:38;;;;;;;1.63;1.40;;;3.50;98.20;;;;;;4963727;28;20470;-73
2022/01/26 03:57:05;;;;;;;1.60;1.30;;;3.50;98.20;;;;;;4951497;28;21026;-73
2022/01/26 03:59:34;;;;;;;1.60;1.40;;;3.50;98.20;;;;;;4956790;28;20498;-73
2022/01/26 04:02:00;;;;;;;1.70;1.40;;;3.50;98.20;;;;;;4951185;28;20889;-73
2022/01/26 04:04:30;;;;;;;1.67;1.40;;;3.50;98.20;;;;;;4957979;28;20470;-73
2022/01/26 04:06:59;;;;;;;1.67;1.40;;;3.50;98.20;;;;;;4950392;28;20584;-73
2022/01/26 04:09:26;;;;;;;1.60;1.40;;;3.50;98.20;;;;;;4965878;28;20866;-73
2022/01/26 04:11:52;;;;;;;1.63;1.40;;;3.50;98.20;;;;;;4953819;28;21002;-73
2022/01/26 04:14:25;;;;;;;1.63;1.40;;;3.50;98.20;;;;;;4958447;28;20467;-73
2022/01/26 04:16:53;;;;;;;1.63;1.33;;;3.50;98.20;;;;;;4948891;28;20495;-73
2022/01/26 04:19:21;;;;;;;1.60;1.30;;;3.50;98.20;;;;;;4957313;28;20497;-73
2022/01/26 04:22:01;;;;;;;1.70;1.40;;;3.50;98.20;;;;;;4951517;28;20516;-74
2022/01/26 04:24:34;;;;;;;1.70;1.50;;;3.50;98.20;;;;;;4955556;28;20979;-73
2022/01/26 04:27:04;;;;;;;1.60;1.40;;;3.40;98.20;;;;;;4949665;28;20497;-74
2022/01/26 04:29:33;;;;;;;1.70;1.50;;;3.50;98.20;;;;;;4955742;28;20573;-73
2022/01/26 04:32:03;;;;;;;3.47;2.97;;;3.40;98.20;;;;;;4949475;28;20549;-73
2022/01/26 04:34:32;;;;;;;1.60;1.40;;;3.40;98.20;;;;;;4957364;28;20463;-73
2022/01/26 04:37:05;;;;;;;1.60;1.40;;;3.40;98.20;;;;;;4950478;28;20494;-73
2022/01/26 04:39:36;;;;;;;1.60;1.40;;;3.40;98.20;;;;;;4954756;28;20967;-73
2022/01/26 04:42:09;;;;;;;1.63;1.40;;;3.40;98.20;;;;;;4950235;28;20580;-73
2022/01/26 04:44:41;;;;;;;1.70;1.57;;;3.40;98.20;;;;;;4956229;28;20521;-73
2022/01/26 04:47:09;;;;;;;1.70;1.53;;;3.40;98.20;;;;;;4952154;28;20541;-73
2022/01/26 04:49:36;;;;;;;1.63;1.40;;;3.40;98.20;;;;;;4971189;28;20489;-73
2022/01/26 04:52:03;;;;;;;1.70;1.50;;;3.40;98.20;;;;;;4951149;28;20994;-71
2022/01/26 04:54:31;;;;;;;1.67;1.40;;;3.40;98.20;;;;;;4959696;28;20522;-72
2022/01/26 04:56:57;;;;;;;1.70;1.53;;;3.40;98.20;;;;;;4949224;28;20490;-73
2022/01/26 04:59:24;;;;;;;2.57;2.37;;;3.40;98.20;;;;;;4955560;28;20873;-72
2022/01/26 05:01:51;;;;;;;1.70;1.40;;;3.40;98.20;;;;;;4960151;28;20512;-72
2022/01/26 05:04:19;;;;;;;2.00;1.80;;;3.40;98.20;;;;;;4975895;28;20546;-71
2022/01/26 05:06:46;;;;;;;1.70;1.50;;;3.40;98.20;;;;;;4959343;28;20513;-72
2022/01/26 05:09:13;;;;;;;1.67;1.50;;;3.40;98.20;;;;;;4956060;28;20853;-72
2022/01/26 05:11:42;;;;;;;1.70;1.40;;;3.40;98.20;;;;;;4946796;28;20568;-71
2022/01/26 05:14:09;;;;;;;1.70;1.50;;;3.40;98.20;;;;;;4958024;28;20493;-71
2022/01/26 05:16:36;;;;;;;2.70;2.47;;;3.40;98.20;;;;;;4946581;28;20696;-71
2022/01/26 05:19:05;;;;;;;1.63;1.30;;;3.40;98.20;;;;;;4959192;28;20495;-72
2022/01/26 05:21:33;;;;;;;1.67;1.40;;;3.30;98.20;;;;;;4954687;28;21021;-72
2022/01/26 05:24:00;;;;;;;1.70;1.40;;;3.40;98.20;;;;;;4963841;28;20467;-72
2022/01/26 05:26:27;;;;;;;2.00;1.80;;;3.30;98.20;;;;;;4945084;28;20492;-72
2022/01/26 05:28:54;;;;;;;1.70;1.50;;;3.40;98.20;;;;;;4962412;28;20482;-72
2022/01/26 05:31:20;;;;;;;1.70;1.50;;;3.40;98.20;;;;;;4942277;28;20482;-72
2022/01/26 05:33:47;;;;;;;1.70;1.40;;;3.40;98.20;;;;;;4978200;28;21010;-71
2022/01/26 05:36:15;;;;;;;1.70;1.50;;;3.30;98.20;;;;;;4942715;28;20482;-72
2022/01/26 05:38:43;;;;;;;1.63;1.40;;;3.30;98.20;;;;;;4960396;28;20677;-72
2022/01/26 05:41:10;;;;;;;1.60;1.30;;;3.30;98.20;;;;;;4946214;28;20474;-72
2022/01/26 05:43:38;;;;;;;1.70;1.50;;;3.30;98.20;;;;;;4962664;28;20466;-72
2022/01/26 05:46:09;;;;;;;1.87;1.77;;;3.30;98.20;;;;;;4939305;28;20471;-72
2022/01/26 05:48:42;;;;;;;1.67;1.43;;;3.30;98.20;;;;;;4962713;28;20494;-72
2022/01/26 05:51:10;;;;;;;1.70;1.50;;;3.20;98.20;;;;;;4937540;28;20841;-71
2022/01/26 05:53:38;;;;;;;1.70;1.40;;;3.20;98.20;;;;;;4956798;28;20498;-72
2022/01/26 05:56:07;;;;;;;1.60;1.40;;;3.20;98.20;;;;;;4934515;28;20473;-73
2022/01/26 05:58:34;;;;;;;1.63;1.40;;;3.20;98.20;;;;;;4962571;28;20918;-73
2022/01/26 06:01:01;;;;;;;1.70;1.50;;;3.20;98.20;;;;;;4937994;28;20482;-74
2022/01/26 06:03:29;;;;;;;1.70;1.47;;;3.20;98.20;;;;;;4957295;28;20463;-73
2022/01/26 06:05:56;;;;;;;1.67;1.53;;;3.20;98.20;;;;;;4947240;28;20477;-73
2022/01/26 06:08:24;;;;;;;2.13;1.97;;;3.20;98.20;;;;;;4957974;28;20483;-73
2022/01/26 06:10:51;;;;;;;1.67;1.40;;;3.20;98.20;;;;;;4934994;28;20462;-74
2022/01/26 06:13:19;;;;;;;1.70;1.40;;;3.20;98.20;;;;;;4967276;28;20864;-74
2022/01/26 06:15:47;;;;;;;1.70;1.50;;;3.20;98.20;;;;;;4954262;28;20458;-73
2022/01/26 06:18:14;;;;;;;1.67;1.40;;;3.20;98.20;;;;;;4958018;28;21133;-72
2022/01/26 06:20:41;;;;;;;1.70;1.50;;;3.10;98.20;;;;;;4950754;28;20474;-72
2022/01/26 06:23:08;;;;;;;1.70;1.60;;;3.10;98.20;;;;;;4957903;28;20529;-72
2022/01/26 06:25:34;;;;;;;1.70;1.60;;;3.10;98.20;;;;;;4947517;28;20454;-73
2022/01/26 06:28:06;;;;;;;1.60;1.40;;;3.10;98.20;;;;;;4964843;28;20493;-72
2022/01/26 06:30:35;;;;;;;1.67;1.40;;;3.10;98.20;;;;;;4946052;28;20733;-72
2022/01/26 06:33:02;;;;;;;1.70;1.50;;;3.10;98.20;;;;;;4958392;28;20573;-72
2022/01/26 06:35:29;;;;;;;1.60;1.40;;;3.10;98.20;;;;;;4970892;28;20988;-72
2022/01/26 06:37:56;;;;;;;1.60;1.50;;;3.10;98.20;;;;;;4960533;28;20490;-71
2022/01/26 06:40:24;;;;;;;1.70;1.50;;;3.10;98.20;;;;;;4951970;28;20474;-72
2022/01/26 06:42:54;;;;;;;1.70;1.40;;;3.10;98.20;;;;;;4957823;28;20540;-71
2022/01/26 06:45:24;;;;;;;7.13;3.67;;;3.10;98.20;;;;;;4952684;28;20462;-73
2022/01/26 06:48:01;;;;;;;1.60;1.40;;;3.10;98.20;;;;;;4962054;28;20555;-73
2022/01/26 06:50:28;;;;;;;1.70;1.40;;;3.10;98.20;;;;;;4944208;28;20466;-73
2022/01/26 06:52:55;;;;;;;1.60;1.40;;;3.10;98.20;;;;;;4956244;28;20485;-74
2022/01/26 06:55:22;;;;;;;1.70;1.40;;;3.20;98.20;;;;;;4950235;28;21306;-74
2022/01/26 06:57:49;;;;;;;1.70;1.50;;;3.20;98.20;;;;;;4949759;28;20501;-71
2022/01/26 07:00:16;;;;;;;1.67;1.40;;;3.20;98.20;;;;;;4948089;28;20486;-71
2022/01/26 07:02:43;;;;;;;1.63;1.40;;;3.20;98.20;;;;;;4954014;28;20494;-72
2022/01/26 07:05:13;;;;;;;1.60;1.40;;;3.20;98.20;;;;;;4952079;28;20465;-71
2022/01/26 07:07:40;;;;;;;1.63;1.40;;;3.20;98.20;;;;;;4944166;28;21024;-71
2022/01/26 07:12:35;;;;;;;1.70;1.40;;;3.20;98.20;;;;;;4959578;28;20485;-73
2022/01/26 07:21:22;;;;;;;1.70;1.50;;;3.20;98.20;;;;;;4956647;28;20517;-73
2022/01/26 07:23:48;;;;;;;1.70;1.40;;;3.20;98.20;;;;;;4924181;29;20498;-73
2022/01/26 07:26:15;;;;;;;1.70;1.47;;;3.20;98.20;;;;;;4937813;28;20739;-73
2022/01/26 07:28:41;;;;;;;1.70;1.50;;;3.20;98.20;;;;;;4959349;28;20500;-72
2022/01/26 07:31:09;;;;;;;1.63;1.40;;;3.20;98.20;;;;;;4930696;28;20562;-73
2022/01/26 07:33:37;;;;;;;1.70;1.53;;;3.20;98.20;;;;;;4962506;28;20486;-74
2022/01/26 07:36:06;;;;;;;1.70;1.60;;;3.20;98.20;;;;;;4938687;28;20474;-73
2022/01/26 07:38:33;;;;;;;1.60;1.40;;;3.20;98.20;;;;;;4958630;28;20831;-74
2022/01/26 07:41:00;;;;;;;1.63;1.50;;;3.20;98.20;;;;;;4939588;28;20869;-73
2022/01/26 07:43:27;;;;;;;1.70;1.50;;;3.20;98.20;;;;;;4965441;28;20994;-73
2022/01/26 07:45:54;;;;;;;1.70;1.50;;;3.20;98.20;;;;;;4938170;28;20463;-73
2022/01/26 07:48:22;;;;;;;1.67;1.40;;;3.20;98.20;;;;;;4954957;28;20466;-73
2022/01/26 07:50:51;;;;;;;1.70;1.57;;;3.20;98.20;;;;;;4932317;28;20510;-73
2022/01/26 07:53:20;;;;;;;1.67;1.40;;;3.20;98.20;;;;;;4966561;28;20963;-73
2022/01/26 07:55:48;;;;;;;1.67;1.40;;;3.20;98.20;;;;;;4938893;28;20592;-72
2022/01/26 07:58:17;;;;;;;1.60;1.43;;;3.20;98.20;;;;;;4935231;28;20575;-72
2022/01/26 08:00:44;;;;;;;1.60;1.40;;;3.20;98.20;;;;;;4951525;28;20541;-73
2022/01/26 08:03:10;;;;;;;1.67;1.40;;;3.20;98.20;;;;;;4947838;28;20479;-72
2022/01/26 08:05:38;;;;;;;1.67;1.40;;;3.20;98.20;;;;;;4936581;29;20519;-72
2022/01/26 08:08:05;;;;;;;1.60;1.40;;;3.20;98.20;;;;;;4953500;28;20501;-72
2022/01/26 08:10:34;;;;;;;1.63;1.40;;;3.20;98.20;;;;;;4937306;28;20506;-72
2022/01/26 08:13:01;;;;;;;2.07;1.87;;;3.20;98.20;;;;;;4953693;28;20490;-72
2022/01/26 08:15:28;;;;;;;1.83;1.63;;;3.20;98.20;;;;;;4955835;28;20491;-72
2022/01/26 08:17:56;;;;;;;1.60;1.40;;;3.20;98.20;;;;;;4954517;28;20993;-72
2022/01/26 08:20:23;;;;;;;1.70;1.50;;;3.20;98.20;;;;;;4950624;28;20491;-72
2022/01/26 08:22:51;;;;;;;1.63;1.40;;;3.20;98.20;;;;;;4927438;28;20498;-72
2022/01/26 08:25:18;;;;;;;1.70;1.50;;;3.20;98.20;;;;;;4947875;29;20463;-72
2022/01/26 08:27:53;;;;;;;1.70;1.60;;;3.20;98.20;;;;;;4953935;28;20500;-72
2022/01/26 08:30:21;;;;;;;1.70;1.50;;;3.30;98.20;;;;;;4946713;28;20868;-73
2022/01/26 08:32:48;;;;;;;1.70;1.60;;;3.30;98.20;;;;;;4952102;28;20470;-73
2022/01/26 08:35:14;;;;;;;1.63;1.40;;;3.30;98.20;;;;;;4935468;29;20582;-73
2022/01/26 08:37:41;;;;;;;1.67;1.50;;;3.30;98.20;;;;;;4940807;28;20662;-73
2022/01/26 08:40:08;;;;;;;1.67;1.40;;;3.30;98.20;;;;;;4945684;28;20483;-73
2022/01/26 08:42:37;;;;;;;1.63;1.40;;;3.40;98.20;;;;;;4940522;28;20561;-73
2022/01/26 08:45:06;;;;;;;1.70;1.47;;;3.40;98.20;;;;;;4947448;28;20863;-73
2022/01/26 08:47:33;;;;;;;1.60;1.40;;;3.40;98.20;;;;;;4944683;28;20495;-73
2022/01/26 08:50:00;;;;;;;1.70;1.40;;;3.40;98.20;;;;;;4936172;28;20468;-73
2022/01/26 08:52:27;;;;;;;1.77;1.67;;;3.40;98.20;;;;;;4940698;28;20508;-72
2022/01/26 08:54:53;;;;;;;1.67;1.43;;;3.40;98.20;;;;;;4942329;28;20487;-72
2022/01/26 08:57:20;;;;;;;1.67;1.40;;;3.40;98.20;;;;;;4951491;28;20493;-72
2022/01/26 08:59:48;;;;;;;1.70;1.50;;;3.40;98.20;;;;;;4939269;28;20471;-71
2022/01/26 09:07:20;;;;;;;1.70;1.40;;;3.50;98.20;;;;;;4928610;28;20942;-72
2022/01/26 09:09:47;;;;;;;1.70;1.40;;;3.50;98.20;;;;;;4934680;29;20491;-72
2022/01/26 09:12:16;;;;;;;1.63;1.40;;;3.50;98.20;;;;;;4931085;28;20517;-72
2022/01/26 09:14:44;;;;;;;1.60;1.40;;;3.50;98.20;;;;;;4948281;28;20497;-72
2022/01/26 09:17:13;;;;;;;1.70;1.50;;;3.50;98.20;;;;;;4949804;28;20492;-72
2022/01/26 09:19:42;;;;;;;1.63;1.40;;;3.50;98.20;;;;;;4953649;28;20991;-72
2022/01/26 09:22:11;;;;;;;1.70;1.50;;;3.50;98.20;;;;;;4949877;28;20568;-72
2022/01/26 09:24:41;;;;;;;1.60;1.40;;;3.50;98.20;;;;;;4954326;28;20570;-72
2022/01/26 09:27:09;;;;;;;1.70;1.47;;;3.50;98.20;;;;;;4950175;28;20482;-73
2022/01/26 09:29:37;;;;;;;1.70;1.50;;;3.50;98.20;;;;;;4951645;28;20471;-72
2022/01/26 09:32:06;;;;;;;1.67;1.40;;;3.50;98.20;;;;;;4948464;28;20733;-75
2022/01/26 09:34:35;;;;;;;1.70;1.40;;;3.50;98.20;;;;;;4950813;28;20499;-74
2022/01/26 09:37:02;;;;;;;1.70;1.40;;;3.50;98.20;;;;;;4950430;28;20494;-74
2022/01/26 09:39:31;;;;;;;1.70;1.40;;;3.50;98.20;;;;;;4952719;28;20603;-73
2022/01/26 09:42:00;;;;;;;1.97;1.77;;;3.50;98.20;;;;;;4946638;28;20485;-73
2022/01/26 09:44:30;;;;;;;1.70;1.57;;;3.50;98.20;;;;;;4955590;28;20872;-73
2022/01/26 09:46:56;;;;;;;1.60;1.30;;;3.50;98.20;;;;;;4947889;28;20509;-73
2022/01/26 09:49:31;;;;;;;1.70;1.60;;;3.50;98.20;;;;;;4955432;28;20844;-73
2022/01/26 09:52:01;;;;;;;1.70;1.40;;;3.50;98.20;;;;;;4947622;28;20523;-73
2022/01/26 09:54:30;;;;;;;1.60;1.40;;;3.50;98.20;;;;;;4953858;28;20549;-73
2022/01/26 09:57:02;;;;;;;1.70;1.40;;;3.50;98.20;;;;;;4945258;28;20486;-72
2022/01/26 09:59:29;;;;;;;1.67;1.30;;;3.50;98.20;;;;;;4954424;28;20501;-73
2022/01/26 10:01:56;;;;;;;1.60;1.40;;;3.60;98.20;;;;;;4947985;28;20486;-72
2022/01/26 10:04:25;;;;;;;1.70;1.40;;;3.60;98.20;;;;;;4955441;28;20486;-72
2022/01/26 10:07:13;;;;;;;1.70;1.40;;;3.60;98.20;;;;;;4946888;28;20486;-72
2022/01/26 10:15:31;;;;;;;1.70;1.53;;;3.60;98.20;;;;;;4949844;28;20494;-72
2022/01/26 10:18:04;;;;;;;1.70;1.40;;;3.60;98.20;;;;;;4952383;28;20572;-72
2022/01/26 10:20:45;;;;;;;1.60;1.30;;;3.60;98.20;;;;;;4947045;29;20466;-72
2022/01/26 10:23:16;;;;;;;1.67;1.40;;;3.60;98.20;;;;;;4937367;28;20894;-72
2022/01/26 10:25:45;;;;;;;1.70;1.40;;;3.60;98.20;;;;;;4948104;29;20883;-72
2022/01/26 10:28:15;;;;;;;1.70;1.50;;;3.60;98.20;;;;;;4937927;28;20562;-72
2022/01/26 10:30:47;;;;;;;1.70;1.60;;;3.60;98.20;;;;;;4948752;29;20522;-72
2022/01/26 10:33:15;;;;;;;1.60;1.40;;;3.60;98.20;;;;;;4935324;28;20544;-72
2022/01/26 10:35:42;;;;;;;1.70;1.50;;;3.60;98.20;;;;;;4949363;29;20502;-72
2022/01/26 10:38:09;;;;;;;1.60;1.40;;;3.60;98.20;;;;;;4954621;28;20538;-72
2022/01/26 10:40:39;;;;;;;1.60;1.30;;;3.60;98.20;;;;;;4948455;29;20470;-72
2022/01/26 10:43:10;;;;;;;1.70;1.43;;;3.60;98.20;;;;;;4954610;28;20481;-72
2022/01/26 10:48:31;;;;;;;1.70;1.57;;;3.70;98.20;;;;;;4937503;29;20524;-72
2022/01/26 10:53:44;;;;;;;1.70;1.50;;;3.70;98.20;;;;;;4914967;28;20589;-72
2022/01/26 10:56:11;;;;;;;1.67;1.47;;;3.70;98.20;;;;;;4942148;28;20493;-72
2022/01/26 10:58:38;;;;;;;1.70;1.40;;;3.70;98.20;;;;;;4964514;28;20470;-72
2022/01/26 11:01:06;;;;;;;1.70;1.40;;;3.70;98.20;;;;;;4942891;28;20991;-72
2022/01/26 11:03:34;;;;;;;3.30;3.00;;;3.70;98.20;;;;;;4959723;28;20487;-73
2022/01/26 11:06:01;;;;;;;1.80;1.70;;;3.80;98.20;;;;;;4943696;28;20506;-71
2022/01/26 11:08:30;;;;;;;27.90;3.87;;;3.80;98.20;;;;;;4963191;28;20474;-72
2022/01/26 11:10:58;;;;;;;1.60;1.40;;;3.80;98.20;;;;;;4942836;28;20517;-71
2022/01/26 11:13:28;;;;;;;1.70;1.47;;;3.90;98.20;;;;;;4963530;28;21068;-72
2022/01/26 11:16:09;;;;;;;1.63;1.40;;;3.90;98.20;;;;;;4940947;28;20529;-72
2022/01/26 11:18:51;;;;;;;1.60;1.40;;;3.90;98.20;;;;;;4958347;28;20462;-72
2022/01/26 11:21:33;;;;;;;1.70;1.43;;;3.90;98.20;;;;;;4940347;28;21016;-72
2022/01/26 11:24:11;;;;;;;1.63;1.40;;;4.00;98.20;;;;;;4960143;28;20871;-71
2022/01/26 11:26:41;;;;;;;1.70;1.40;;;4.00;98.20;;;;;;4947993;28;20918;-72
2022/01/26 11:29:21;;;;;;;1.70;1.50;;;4.00;98.20;;;;;;4959521;28;20463;-72
2022/01/26 11:32:01;;;;;;;1.67;1.30;;;4.00;98.20;;;;;;4947815;28;20486;-71
2022/01/26 11:34:30;;;;;;;1.70;1.60;;;4.00;98.20;;;;;;4956320;28;20937;-72
2022/01/26 11:37:00;;;;;;;1.67;1.40;;;4.00;98.20;;;;;;4950436;28;20535;-71
2022/01/26 11:45:10;;;;;;;1.60;1.30;;;4.00;98.20;;;;;;4948024;28;20834;-72
2022/01/26 11:47:42;;;;;;;1.60;1.30;;;4.00;98.20;;;;;;4953573;28;20478;-71
2022/01/26 11:50:14;;;;;;;2.73;2.53;;;4.00;98.20;;;;;;4950629;28;20542;-71
2022/01/26 11:52:45;;;;;;;1.60;1.40;;;4.00;98.20;;;;;;4944725;28;20488;-72
2022/01/26 11:55:28;;;;;;;1.63;1.40;;;4.00;98.20;;;;;;4949838;28;21036;-73
2022/01/26 11:58:10;;;;;;;1.63;1.30;;;4.00;98.20;;;;;;4952525;28;20481;-72
2022/01/26 12:00:48;;;;;;;1.70;1.50;;;4.00;98.20;;;;;;4946886;29;20474;-72
2022/01/26 12:03:29;;;;;;;1.60;1.40;;;4.00;98.20;;;;;;4938513;28;20518;-72
2022/01/26 12:05:58;;;;;;;1.70;1.50;;;4.00;98.20;;;;;;4939813;28;20478;-72
2022/01/26 12:08:30;;;;;;;2.60;2.40;;;4.00;98.20;;;;;;4952266;28;20487;-72
2022/01/26 12:10:57;;;;;;;2.50;2.30;;;4.00;98.20;;;;;;4936261;28;20589;-73
2022/01/26 12:13:26;;;;;;;1.70;1.30;;;4.10;98.20;;;;;;4960264;28;20557;-73
2022/01/26 12:15:56;;;;;;;1.60;1.40;;;4.10;98.20;;;;;;4938752;28;20494;-73
2022/01/26 12:18:32;;;;;;;1.67;1.50;;;4.00;98.20;;;;;;4960702;28;20762;-73
2022/01/26 12:35:26;;;;;;;1.60;1.40;;;4.00;98.20;;;;;;4945045;28;21057;-73
2022/01/26 12:38:02;;;;;;;1.60;1.40;;;4.00;98.20;;;;;;4953102;28;20489;-73
2022/01/26 12:43:18;;;;;;;2.03;1.83;;;4.10;98.20;;;;;;4936955;28;20481;-73
2022/01/26 12:45:47;;;;;;;1.67;1.37;;;4.10;98.20;;;;;;4948078;28;20459;-73
2022/01/26 12:48:15;;;;;;;1.67;1.40;;;4.10;98.20;;;;;;4935677;28;20545;-73
2022/01/26 12:50:43;;;;;;;1.67;1.40;;;4.10;98.20;;;;;;4945921;29;20525;-73
2022/01/26 12:53:10;;;;;;;1.60;1.40;;;4.10;98.20;;;;;;4950659;28;20604;-72
2022/01/26 12:55:38;;;;;;;1.70;1.50;;;4.10;98.20;;;;;;4947303;28;20937;-74
2022/01/26 12:58:06;;;;;;;1.70;1.50;;;4.10;98.20;;;;;;4952541;28;20855;-75
2022/01/26 13:00:42;;;;;;;1.60;1.50;;;4.00;98.20;;;;;;4946513;29;20498;-74
2022/01/26 13:03:18;;;;;;;1.60;1.40;;;4.00;98.20;;;;;;4953773;28;20489;-74
2022/01/26 13:05:47;;;;;;;1.60;1.40;;;4.10;98.20;;;;;;4947771;29;20477;-75
2022/01/26 13:08:13;;;;;;;1.70;1.43;;;4.00;98.20;;;;;;4935890;29;20479;-74
2022/01/26 13:10:41;;;;;;;1.70;1.50;;;4.10;98.20;;;;;;4947967;29;20471;-75
2022/01/26 13:13:17;;;;;;;1.63;1.30;;;4.10;98.20;;;;;;4951685;28;20589;-74
2022/01/26 13:15:51;;;;;;;1.70;1.40;;;4.10;98.20;;;;;;4946874;28;20625;-74
2022/01/26 13:18:28;;;;;;;1.70;1.60;;;4.10;98.20;;;;;;4936372;28;20867;-74
2022/01/26 13:21:14;;;;;;;1.60;1.40;;;4.10;98.20;;;;;;4936687;28;20911;-76
2022/01/26 13:23:55;;;;;;;1.60;1.27;;;4.10;98.20;;;;;;4955927;28;20494;-77
2022/01/26 13:26:32;;;;;;;1.70;1.43;;;4.10;98.20;;;;;;4940134;28;20593;-75
2022/01/26 13:29:18;;;;;;;1.70;1.50;;;4.10;98.20;;;;;;4958191;28;20470;-76
2022/01/26 13:34:54;;;;;;;1.70;1.50;;;4.00;98.20;;;;;;4948950;28;20581;-76
2022/01/26 13:37:32;;;;;;;1.60;1.30;;;4.00;98.20;;;;;;4947555;28;20513;-73
2022/01/26 13:40:13;;;;;;;1.70;1.47;;;4.00;98.20;;;;;;4948417;28;20474;-74
2022/01/26 13:51:04;;;;;;;1.80;1.70;;;4.00;98.20;;;;;;4934016;28;20529;-74
2022/01/26 13:53:45;;;;;;;1.70;1.47;;;4.00;98.20;;;;;;4957220;28;20998;-74
2022/01/26 13:56:16;;;;;;;1.67;1.43;;;4.00;98.20;;;;;;4938707;28;20713;-74
2022/01/26 14:01:29;;;;;;;1.60;1.40;;;4.00;98.20;;;;;;4933949;28;20628;-74
2022/01/26 14:04:02;;;;;;;1.60;1.30;;;4.00;98.20;;;;;;4956980;28;20900;-75
2022/01/26 14:06:29;;;;;;;1.60;1.40;;;4.00;98.20;;;;;;4939295;28;20564;-75
2022/01/26 14:08:58;;;;;;;1.70;1.50;;;4.00;98.20;;;;;;4948859;28;20530;-77
2022/01/26 14:11:24;;;;;;;1.60;1.30;;;4.00;98.20;;;;;;4937495;28;20526;-74
2022/01/26 14:13:55;;;;;;;1.70;1.50;;;4.00;98.20;;;;;;4953960;28;20479;-73
2022/01/26 14:16:23;;;;;;;1.70;1.60;;;4.00;98.20;;;;;;4941074;28;20529;-75
2022/01/26 14:19:05;;;;;;;1.70;1.60;;;4.00;98.20;;;;;;4956409;28;20494;-76
2022/01/26 14:21:43;;;;;;;1.60;1.30;;;4.00;98.20;;;;;;4941933;28;20525;-74
2022/01/26 14:24:30;;;;;;;1.70;1.50;;;3.90;98.20;;;;;;4950970;28;20486;-74
2022/01/26 14:27:00;;;;;;;1.63;1.50;;;4.00;98.20;;;;;;4940941;28;20917;-74
2022/01/26 14:29:38;;;;;;;1.70;1.47;;;4.00;98.20;;;;;;4948230;28;20918;-74
2022/01/26 14:32:23;;;;;;;1.70;1.40;;;3.90;98.20;;;;;;4949917;28;21086;-75
2022/01/26 14:35:14;;;;;;;1.60;1.40;;;4.00;98.20;;;;;;4953196;28;20490;-74
2022/01/26 14:52:06;;;;;;;1.70;1.50;;;3.90;98.20;;;;;;4939572;28;20536;-74
2022/01/26 14:54:49;;;;;;;1.60;1.30;;;3.90;98.20;;;;;;4954476;28;20482;-74
2022/01/26 15:00:29;;;;;;;1.70;1.40;;;4.00;98.20;;;;;;4941190;28;20608;-73
2022/01/26 15:08:50;;;;;;;1.60;1.40;;;3.90;98.20;;;;;;4939882;28;20512;-74
2022/01/26 15:31:13;;;;;;;1.70;1.53;;;3.90;98.20;;;;;;4947886;29;20808;-72
2022/01/26 15:33:41;;;;;;;1.73;1.47;;;3.90;98.20;;;;;;4938460;28;20482;-73
2022/01/26 15:42:00;;;;;;;1.70;1.50;;;3.90;98.20;;;;;;4944846;28;20497;-74
2022/01/26 15:44:40;;;;;;;1.63;1.30;;;3.90;98.20;;;;;;4954646;28;20491;-73
2022/01/26 15:49:57;;;;;;;1.70;1.40;;;3.90;98.20;;;;;;4951013;28;20462;-75
2022/01/26 15:58:12;;;;;;;1.63;1.40;;;3.80;98.20;;;;;;4953206;28;20962;-74
2022/01/26 16:06:17;;;;;;;1.67;1.43;;;3.80;98.20;;;;;;4936977;28;20909;-72